TimePDT,TemperatureF,Dew PointF,Humidity,Sea Level PressureIn,VisibilityMPH,Wind Direction,Wind SpeedMPH,Gust SpeedMPH,PrecipitationIn,Events,Conditions,WindDirDegrees,DateUTC
2:00 AM,8,4,78,29.72,,Calm,Calm,,,,,,2012-11-03 09:00:00
5:00 AM,8,5,81,29.71,,SSW,2.3,,,,,210,2012-11-03 12:00:00
7:00 AM,8.6,5.0,85,29.71,1.0,Calm,Calm,-,N/A,Snow,Light Snow,0,2012-11-03 14:00:00
8:00 AM,10,6,75,29.72,,SSW,4.6,,,,,210,2012-11-03 15:00:00
8:00 AM,10.4,5.0,79,29.71,1.0,Calm,Calm,-,N/A,Snow,Light Snow,0,2012-11-03 15:00:00
9:00 AM,10.4,5.0,79,29.72,1.2,Calm,Calm,-,N/A,Snow,Light Snow,0,2012-11-03 16:00:00
10:00 AM,10.4,6.8,85,29.73,1.2,Calm,Calm,-,N/A,Snow,Light Snow,0,2012-11-03 17:00:00
10:21 AM,-9999,-9999,N/A,-9999,2.0,Calm,Calm,-,N/A,,Unknown,0,2012-11-03 17:21:00
11:00 AM,10,6,76,29.75,,South,4.6,,,,,190,2012-11-03 18:00:00
11:00 AM,10.4,6.8,85,29.75,3.0,Calm,Calm,-,N/A,Snow,Light Snow,0,2012-11-03 18:00:00
12:00 PM,10.4,5.0,79,29.76,3.0,Calm,Calm,-,N/A,Snow,Light Snow,0,2012-11-03 19:00:00
12:14 PM,-9999,-9999,N/A,-9999,5.0,Calm,Calm,-,N/A,,Unknown,0,2012-11-03 19:14:00
1:00 PM,8.6,3.2,79,29.79,7.0,Calm,Calm,-,N/A,Snow,Light Snow,0,2012-11-03 20:00:00
2:00 PM,12,7,71,29.80,,Calm,Calm,,,,,,2012-11-03 21:00:00
2:00 PM,10.4,6.8,85,29.80,10.0,Calm,Calm,-,N/A,Snow,Light Snow,0,2012-11-03 21:00:00
3:00 PM,12.2,8.6,85,29.79,20.0,Calm,Calm,-,N/A,Snow,Light Snow,0,2012-11-03 22:00:00
4:00 PM,10.4,6.8,85,29.79,20.0,Calm,Calm,-,N/A,Snow,Light Snow,0,2012-11-03 23:00:00
5:00 PM,9,4,72,29.78,,SSW,2.3,,,,,200,2012-11-04 00:00:00
8:00 PM,-6,-11,69,29.81,,SW,2.3,,,,,220,2012-11-04 03:00:00
11:00 PM,4,1,80,29.79,,Calm,Calm,,,,,,2012-11-04 06:00:00